Time;durP1;ratioP1;P1;durP2;ratioP2;P2;SDS_P1;SDS_P2;PMS_P1;PMS_P2;Temp;Humidity;BMP_temperature;BMP_pressure;BME280_temperature;BME280_humidity;BME280_pressure;Samples;Min_cycle;Max_cycle;Signal;HPM_P1;HPM_P2
2022/06/08 00:00:29;;;;;;;;;;;;;;;22.48;68.77;100915.78;5073266;28;19940;-80
2022/06/08 00:03:00;;;;;;;;;;;;;;;22.47;68.72;100906.00;5081724;28;19913;-80
2022/06/08 00:05:26;;;;;;;;;;;;;;;22.44;68.78;100905.13;5068022;28;19956;-79
2022/06/08 00:07:51;;;;;;;;;;;;;;;22.43;68.69;100906.84;5074528;28;19943;-81
2022/06/08 00:10:17;;;;;;;;;;;;;;;22.43;68.88;100903.31;5086033;28;19998;-81
2022/06/08 00:12:42;;;;;;;;;;;;;;;22.46;68.85;100900.69;5075302;28;19912;-81
2022/06/08 00:15:08;;;;;;;;;;;;;;;22.47;68.66;100902.44;5080614;28;19999;-81
2022/06/08 00:17:33;;;;;;;;;;;;;;;22.43;68.87;100898.00;5076400;28;19916;-80
2022/06/08 00:19:59;;;;;;;;;;;;;;;22.42;68.90;100894.44;5073754;28;19978;-81
2022/06/08 00:22:24;;;;;;;;;;;;;;;22.43;68.95;100895.31;5091329;28;19913;-80
2022/06/08 00:24:50;;;;;;;;;;;;;;;22.38;68.83;100895.31;5083018;28;19972;-80
2022/06/08 00:27:15;;;;;;;;;;;;;;;22.41;68.87;100892.66;5071139;28;19920;-80
2022/06/08 00:29:40;;;;;;;;;;;;;;;22.40;68.85;100887.34;5074030;28;19913;-80
2022/06/08 00:32:06;;;;;;;;;;;;;;;22.41;68.82;100887.31;5085779;28;19995;-80
2022/06/08 00:34:32;;;;;;;;;;;;;;;22.43;68.90;100882.03;5075583;28;20003;-80
2022/06/08 00:36:57;;;;;;;;;;;;;;;22.38;68.95;100882.00;5077648;28;19912;-81
2022/06/08 00:39:23;;;;;;;;;;;;;;;22.41;68.81;100882.00;5084742;28;19920;-80
2022/06/08 00:41:50;;;;;;;;;;;;;;;22.38;68.87;100879.34;5078496;28;19912;-80
2022/06/08 00:44:23;;;;;;;;;;;;;;;22.40;68.89;100874.03;5078608;28;19923;-81
2022/06/08 00:46:49;;;;;;;;;;;;;;;22.35;69.03;100874.88;5074522;28;19909;-80
2022/06/08 00:49:25;;;;;;;;;;;;;;;22.37;68.89;100874.88;5074342;28;19931;-81
2022/06/08 00:51:51;;;;;;;;;;;;;;;22.36;69.02;100881.09;5066727;28;19913;-80
2022/06/08 00:54:18;;;;;;;;;;;;;;;22.38;68.81;100873.13;5071331;28;19912;-80
2022/06/08 00:56:45;;;;;;;;;;;;;;;22.33;69.08;100879.31;5084140;28;20374;-81
2022/06/08 00:59:10;;;;;;;;;;;;;;;22.38;68.91;100878.44;5069312;28;19917;-81
2022/06/08 01:01:36;;;;;;;;;;;;;;;22.33;68.92;100873.97;5065491;28;20440;-80
2022/06/08 01:04:07;;;;;;;;;;;;;;;22.35;68.98;100876.63;5083653;28;19923;-81
2022/06/08 01:06:32;;;;;;;;;;;;;;;22.32;69.04;100877.50;5085743;28;19916;-81
2022/06/08 01:08:58;;;;;;;;;;;;;;;22.36;68.95;100881.97;5087287;28;19913;-80
2022/06/08 01:11:43;;;;;;;;;;;;;;;22.34;68.93;100889.06;5086198;28;20302;-80
2022/06/08 01:14:12;;;;;;;;;;;;;;;22.35;68.92;100892.59;5061337;28;20302;-80
2022/06/08 01:16:42;;;;;;;;;;;;;;;22.31;68.98;100875.75;5069997;28;19916;-80
2022/06/08 01:19:08;;;;;;;;;;;;;;;22.35;68.84;100882.88;5088422;28;19912;-81
2022/06/08 01:21:33;;;;;;;;;;;;;;;22.39;68.82;100874.91;5062591;28;19924;-80
2022/06/08 01:24:01;;;;;;;;;;;;;;;22.33;69.02;100881.97;5072598;28;19916;-81
2022/06/08 01:26:29;;;;;;;;;;;;;;;22.36;68.91;100878.44;5085411;28;19911;-81
2022/06/08 01:28:59;;;;;;;;;;;;;;;22.34;69.14;100877.53;5071154;28;19985;-80
2022/06/08 01:31:54;;;;;;;;;;;;;;;22.35;69.05;100872.22;5083790;28;19919;-80
2022/06/08 01:34:38;;;;;;;;;;;;;;;22.40;68.77;100871.38;5055708;28;19919;-80
2022/06/08 01:37:42;;;;;;;;;;;;;;;22.33;68.90;100875.72;5066025;28;19913;-81
2022/06/08 01:40:19;;;;;;;;;;;;;;;22.33;68.87;100881.06;5054433;28;20033;-80
2022/06/08 01:42:59;;;;;;;;;;;;;;;22.32;68.95;100876.63;5043336;28;20003;-80
2022/06/08 01:45:29;;;;;;;;;;;;;;;22.32;68.74;100872.19;5061846;28;19939;-80
2022/06/08 01:48:01;;;;;;;;;;;;;;;22.34;68.75;100874.88;5086268;28;20029;-80
2022/06/08 01:50:26;;;;;;;;;;;;;;;22.32;68.82;100874.84;5069597;28;19970;-80
2022/06/08 01:52:58;;;;;;;;;;;;;;;22.31;68.90;100881.06;5076064;28;19955;-80
2022/06/08 01:55:31;;;;;;;;;;;;;;;22.30;68.80;100873.94;5071804;28;19935;-80
2022/06/08 01:58:09;;;;;;;;;;;;;;;22.32;68.71;100872.19;5070697;28;19912;-80
2022/06/08 02:00:35;;;;;;;;;;;;;;;22.31;68.69;100877.53;5082407;28;19920;-80
2022/06/08 02:03:16;;;;;;;;;;;;;;;22.33;68.55;100875.72;5074678;28;20385;-80
2022/06/08 02:05:57;;;;;;;;;;;;;;;22.32;68.69;100879.28;5068315;28;19916;-79
2022/06/08 02:08:40;;;;;;;;;;;;;;;22.32;68.54;100876.63;5071301;28;19947;-80
2022/06/08 02:11:15;;;;;;;;;;;;;;;22.34;68.51;100874.88;5077590;28;19969;-79
2022/06/08 02:13:41;;;;;;;;;;;;;;;22.33;68.42;100875.72;5075090;28;19923;-79
2022/06/08 02:16:07;;;;;;;;;;;;;;;22.31;68.68;100878.41;5070537;28;19916;-80
2022/06/08 02:18:38;;;;;;;;;;;;;;;22.31;68.40;100880.19;5067758;28;20392;-80
2022/06/08 02:21:33;;;;;;;;;;;;;;;22.30;68.54;100873.94;5072634;28;19920;-80
2022/06/08 02:24:01;;;;;;;;;;;;;;;22.29;68.47;100866.84;5049632;28;19986;-80
2022/06/08 02:26:28;;;;;;;;;;;;;;;22.30;68.40;100871.28;5073220;28;19955;-80
2022/06/08 02:28:57;;;;;;;;;;;;;;;22.29;68.49;100873.97;5083945;28;19920;-80
2022/06/08 02:31:24;;;;;;;;;;;;;;;22.29;68.57;100869.53;5071612;28;20007;-80
2022/06/08 02:34:28;;;;;;;;;;;;;;;22.31;68.44;100872.19;5084694;28;19926;-80
2022/06/08 02:37:09;;;;;;;;;;;;;;;22.30;68.30;100881.94;5068838;28;19927;-81
2022/06/08 02:39:45;;;;;;;;;;;;;;;22.30;68.38;100884.59;5075189;28;19916;-80
2022/06/08 02:42:13;;;;;;;;;;;;;;;22.29;68.45;100881.94;5072870;28;19919;-81
2022/06/08 02:44:38;;;;;;;;;;;;;;;22.28;68.44;100885.47;5084006;28;19923;-80
2022/06/08 02:47:06;;;;;;;;;;;;;;;22.27;68.33;100886.34;5066992;28;20010;-81
2022/06/08 02:49:35;;;;;;;;;;;;;;;22.25;68.42;100889.00;5061318;28;19987;-80
2022/06/08 02:52:06;;;;;;;;;;;;;;;22.26;68.41;100898.75;5081922;28;19913;-80
2022/06/08 02:54:31;;;;;;;;;;;;;;;22.27;68.38;100895.22;5071665;28;19919;-80
2022/06/08 02:56:58;;;;;;;;;;;;;;;22.26;68.40;100906.72;5070240;28;19912;-80
2022/06/08 02:59:26;;;;;;;;;;;;;;;22.24;68.45;100907.59;5070580;28;19992;-80
2022/06/08 03:02:00;;;;;;;;;;;;;;;22.27;68.31;100908.53;5074617;28;19948;-81
2022/06/08 03:04:46;;;;;;;;;;;;;;;22.25;68.43;100901.41;5075602;28;19970;-81
2022/06/08 03:07:13;;;;;;;;;;;;;;;22.26;68.37;100904.06;5075114;28;19912;-80
2022/06/08 03:09:39;;;;;;;;;;;;;;;22.25;68.51;100902.28;5076657;28;19971;-79
2022/06/08 03:12:07;;;;;;;;;;;;;;;22.25;68.32;100907.63;5077320;28;19924;-80
2022/06/08 03:14:32;;;;;;;;;;;;;;;22.24;68.34;100902.28;5075401;28;19912;-80
2022/06/08 03:16:59;;;;;;;;;;;;;;;22.24;68.31;100895.19;5087205;28;19908;-78
2022/06/08 03:19:25;;;;;;;;;;;;;;;22.25;68.30;100898.75;5079570;28;19978;-80
2022/06/08 03:21:51;;;;;;;;;;;;;;;22.22;68.36;100894.25;5068049;28;20102;-80
2022/06/08 03:24:16;;;;;;;;;;;;;;;22.23;68.39;100896.06;5068441;28;20386;-79
2022/06/08 03:26:43;;;;;;;;;;;;;;;22.21;68.51;100894.25;5071710;28;19908;-80
2022/06/08 03:29:09;;;;;;;;;;;;;;;22.22;68.36;100893.34;5071709;28;19916;-80
2022/06/08 03:31:34;;;;;;;;;;;;;;;22.21;68.35;100892.47;5071497;28;20290;-80
2022/06/08 03:34:00;;;;;;;;;;;;;;;22.23;68.42;100889.88;5067558;28;19909;-80
2022/06/08 03:36:25;;;;;;;;;;;;;;;22.18;68.48;100892.44;5055933;28;19916;-80
2022/06/08 03:38:51;;;;;;;;;;;;;;;22.17;68.57;100891.53;5059997;28;19909;-80
2022/06/08 03:41:16;;;;;;;;;;;;;;;22.20;68.48;100901.31;5063542;28;19915;-80
2022/06/08 03:43:42;;;;;;;;;;;;;;;22.22;68.42;100906.66;5055239;28;19952;-80
2022/06/08 03:46:07;;;;;;;;;;;;;;;22.23;68.32;100913.81;5055413;28;20305;-80
2022/06/08 03:48:33;;;;;;;;;;;;;;;22.22;68.43;100926.16;5086455;28;19914;-80
2022/06/08 03:50:58;;;;;;;;;;;;;;;22.20;68.53;100924.38;5080006;28;19908;-80
2022/06/08 03:53:56;;;;;;;;;;;;;;;22.18;68.47;100929.66;5072096;28;20395;-80
2022/06/08 03:56:22;;;;;;;;;;;;;;;22.19;68.43;100925.25;5050589;28;19919;-80
2022/06/08 03:58:47;;;;;;;;;;;;;;;22.20;68.48;100922.59;5089685;28;19908;-80
2022/06/08 04:01:13;;;;;;;;;;;;;;;22.17;68.54;100923.47;5072138;28;19963;-80
2022/06/08 04:03:38;;;;;;;;;;;;;;;22.17;68.53;100934.09;5077473;28;20491;-80
2022/06/08 04:06:03;;;;;;;;;;;;;;;22.16;68.70;100940.31;5072558;28;19916;-80
2022/06/08 04:08:31;;;;;;;;;;;;;;;22.17;68.49;100942.09;5054956;28;19913;-80
2022/06/08 04:10:57;;;;;;;;;;;;;;;22.17;68.68;100949.19;5069180;28;20011;-79
2022/06/08 04:13:22;;;;;;;;;;;;;;;22.16;68.59;100940.31;5067442;28;19995;-80
2022/06/08 04:15:48;;;;;;;;;;;;;;;22.17;68.55;100944.75;5066467;28;20389;-80
2022/06/08 04:18:17;;;;;;;;;;;;;;;22.14;69.01;100936.75;5070469;28;19935;-80
2022/06/08 04:20:45;;;;;;;;;;;;;;;22.13;68.93;100934.94;5080412;28;19912;-80
2022/06/08 04:23:10;;;;;;;;;;;;;;;22.10;69.16;100934.94;5071533;28;19915;-80
2022/06/08 04:25:36;;;;;;;;;;;;;;;22.12;69.05;100935.84;5070447;28;19913;-80
2022/06/08 04:28:02;;;;;;;;;;;;;;;22.14;69.03;100934.09;5054982;28;19909;-80
2022/06/08 04:30:27;;;;;;;;;;;;;;;22.15;69.04;100933.19;5074440;28;19920;-80
2022/06/08 04:32:53;;;;;;;;;;;;;;;22.15;68.94;100921.69;5061301;28;19908;-81
2022/06/08 04:35:18;;;;;;;;;;;;;;;22.12;69.11;100929.66;5072395;28;19931;-80
2022/06/08 04:37:44;;;;;;;;;;;;;;;22.14;69.15;100926.09;5074114;28;19919;-80
2022/06/08 04:40:11;;;;;;;;;;;;;;;22.11;69.04;100931.38;5074042;28;19915;-80
2022/06/08 04:42:36;;;;;;;;;;;;;;;22.14;68.95;100930.56;5065525;28;19991;-81
2022/06/08 04:45:02;;;;;;;;;;;;;;;22.16;68.71;100928.75;5069115;28;20027;-80
2022/06/08 04:47:28;;;;;;;;;;;;;;;22.15;68.87;100929.66;5074136;28;19957;-81
2022/06/08 04:49:53;;;;;;;;;;;;;;;22.12;68.96;100925.22;5061120;28;19920;-80
2022/06/08 04:52:19;;;;;;;;;;;;;;;22.10;69.11;100929.63;5072519;28;20371;-79
2022/06/08 04:54:44;;;;;;;;;;;;;;;22.12;68.79;100930.53;5070447;28;19912;-80
2022/06/08 04:57:11;;;;;;;;;;;;;;;22.13;69.01;100931.41;5070187;28;19931;-80
2022/06/08 04:59:36;;;;;;;;;;;;;;;22.11;68.98;100928.72;5071856;28;19916;-80
2022/06/08 05:02:02;;;;;;;;;;;;;;;22.13;68.89;100939.38;5073504;28;19935;-81
2022/06/08 05:04:28;;;;;;;;;;;;;;;22.11;68.79;100941.13;5070739;28;19912;-80
2022/06/08 05:06:53;;;;;;;;;;;;;;;22.11;69.08;100939.38;5074050;28;19912;-80
2022/06/08 05:09:18;;;;;;;;;;;;;;;22.11;68.73;100944.69;5059091;28;19909;-80
2022/06/08 05:11:44;;;;;;;;;;;;;;;22.13;69.30;100939.38;5053803;28;20277;-80
2022/06/08 05:14:09;;;;;;;;;;;;;;;22.11;68.89;100942.03;5066292;28;20362;-80
2022/06/08 05:16:35;;;;;;;;;;;;;;;22.11;68.96;100954.44;5073195;28;19920;-80
2022/06/08 05:19:00;;;;;;;;;;;;;;;22.10;69.00;100950.91;5063377;28;20281;-80
2022/06/08 05:21:26;;;;;;;;;;;;;;;22.15;68.76;100956.25;5055458;28;20414;-80
2022/06/08 05:23:53;;;;;;;;;;;;;;;22.16;68.65;100958.03;5065333;28;20361;-80
2022/06/08 05:26:18;;;;;;;;;;;;;;;22.12;68.72;100959.78;5052359;28;19916;-80
2022/06/08 05:28:44;;;;;;;;;;;;;;;22.12;68.91;100959.78;5066757;28;19917;-80
2022/06/08 05:31:10;;;;;;;;;;;;;;;22.10;68.95;100960.66;5054839;28;19951;-81
2022/06/08 05:33:35;;;;;;;;;;;;;;;22.13;68.80;100958.88;5058890;28;19912;-80
2022/06/08 05:36:00;;;;;;;;;;;;;;;22.13;68.83;100953.56;5063963;28;19912;-80
2022/06/08 05:38:27;;;;;;;;;;;;;;;22.13;68.73;100955.34;5069545;28;19908;-81
2022/06/08 05:40:53;;;;;;;;;;;;;;;22.12;68.65;100953.59;5073173;28;19981;-80
2022/06/08 05:43:19;;;;;;;;;;;;;;;22.15;68.69;100953.59;5051842;28;19920;-81
2022/06/08 05:45:45;;;;;;;;;;;;;;;22.10;69.12;100948.22;5062372;28;19916;-80
2022/06/08 05:48:10;;;;;;;;;;;;;;;22.11;68.85;100946.47;5073119;28;19950;-79
2022/06/08 05:50:37;;;;;;;;;;;;;;;22.09;68.87;100943.78;5067925;28;19951;-80
2022/06/08 05:53:04;;;;;;;;;;;;;;;22.12;68.83;100953.59;5072774;28;19916;-81
2022/06/08 05:55:29;;;;;;;;;;;;;;;22.12;68.69;100949.16;5067740;28;19908;-80
2022/06/08 05:57:55;;;;;;;;;;;;;;;22.07;69.05;100955.28;5068621;28;19916;-80
2022/06/08 06:00:22;;;;;;;;;;;;;;;22.11;69.21;100957.09;5068774;28;19915;-83
2022/06/08 06:02:47;;;;;;;;;;;;;;;22.08;69.40;100960.63;5071546;28;19908;-79
2022/06/08 06:05:14;;;;;;;;;;;;;;;22.14;69.08;100959.81;5059096;28;19928;-81
2022/06/08 06:07:41;;;;;;;;;;;;;;;22.06;69.29;100962.38;5069706;28;19913;-80
2022/06/08 06:10:07;;;;;;;;;;;;;;;22.12;69.41;100966.88;5051989;28;19908;-80
2022/06/08 06:12:32;;;;;;;;;;;;;;;22.10;69.38;100969.50;5054669;28;20385;-81
2022/06/08 06:15:01;;;;;;;;;;;;;;;22.07;69.63;100971.25;5055815;28;19923;-80
2022/06/08 06:17:27;;;;;;;;;;;;;;;21.93;70.28;100965.81;5067673;28;19997;-81
2022/06/08 06:19:52;;;;;;;;;;;;;;;21.88;70.54;100971.03;5052497;28;19908;-81
2022/06/08 06:22:17;;;;;;;;;;;;;;;21.89;70.48;100962.19;5054675;28;20289;-80
2022/06/08 06:24:43;;;;;;;;;;;;;;;21.83;70.87;100966.56;5055667;28;20003;-81
2022/06/08 06:27:08;;;;;;;;;;;;;;;21.86;70.67;100972.78;5071912;28;20372;-80
2022/06/08 06:29:34;;;;;;;;;;;;;;;21.84;71.00;100974.53;5061254;28;19916;-81
2022/06/08 06:32:01;;;;;;;;;;;;;;;21.83;70.86;100979.88;5056430;28;19908;-81
2022/06/08 06:34:27;;;;;;;;;;;;;;;21.81;71.04;100977.19;5076377;28;19912;-82
2022/06/08 06:36:54;;;;;;;;;;;;;;;21.79;70.96;100978.94;5066467;28;19915;-82
2022/06/08 06:39:22;;;;;;;;;;;;;;;21.84;71.14;100971.88;5081378;28;19912;-81
2022/06/08 06:41:47;;;;;;;;;;;;;;;21.85;70.96;100970.13;5080118;28;19935;-79
2022/06/08 06:44:13;;;;;;;;;;;;;;;21.89;70.81;100967.53;5060453;28;19971;-79
2022/06/08 06:46:38;;;;;;;;;;;;;;;21.96;70.50;100973.78;5068485;28;19919;-81
2022/06/08 06:49:04;;;;;;;;;;;;;;;22.06;69.96;100975.69;5071997;28;20003;-80
2022/06/08 06:51:29;;;;;;;;;;;;;;;22.14;69.51;100978.44;5062242;28;19912;-79
2022/06/08 06:53:55;;;;;;;;;;;;;;;22.14;69.29;100975.75;5068329;28;19914;-80
2022/06/08 06:56:20;;;;;;;;;;;;;;;22.20;69.01;100977.56;5082013;28;20344;-80
2022/06/08 06:58:48;;;;;;;;;;;;;;;22.22;68.73;100971.38;5064989;28;19908;-80
2022/06/08 07:01:14;;;;;;;;;;;;;;;22.20;68.77;100967.81;5067727;28;20456;-80
2022/06/08 07:03:40;;;;;;;;;;;;;;;22.16;68.73;100963.34;5071649;28;19908;-80
2022/06/08 07:06:05;;;;;;;;;;;;;;;22.17;68.58;100968.69;5067519;28;19912;-80
2022/06/08 07:08:31;;;;;;;;;;;;;;;22.21;68.45;100972.28;5069518;28;19908;-80
2022/06/08 07:13:41;;;;;;;;;;;;;;;22.20;68.41;100970.47;5059999;28;19915;-80
2022/06/08 07:16:06;;;;;;;;;;;;;;;22.19;68.58;100971.38;5055929;28;19917;-79
2022/06/08 07:18:31;;;;;;;;;;;;;;;22.16;68.50;100974.91;5070475;28;20293;-80
2022/06/08 07:20:57;;;;;;;;;;;;;;;22.17;68.41;100970.47;5071623;28;19909;-79
2022/06/08 07:23:22;;;;;;;;;;;;;;;22.22;68.32;100976.69;5066896;28;20289;-81
2022/06/08 07:25:48;;;;;;;;;;;;;;;22.20;68.30;100990.88;5061886;28;19935;-81
2022/06/08 07:28:14;;;;;;;;;;;;;;;22.16;68.43;100993.50;5068981;28;19923;-79
2022/06/08 07:30:40;;;;;;;;;;;;;;;22.16;68.40;101000.56;5058511;28;19984;-79
2022/06/08 07:33:05;;;;;;;;;;;;;;;22.14;68.48;100997.94;5057196;28;20003;-79
2022/06/08 07:35:30;;;;;;;;;;;;;;;22.12;68.49;100991.69;5071506;28;20283;-78
2022/06/08 07:37:56;;;;;;;;;;;;;;;22.14;68.34;100992.59;5071399;28;20374;-78
2022/06/08 07:40:21;;;;;;;;;;;;;;;22.15;68.30;100998.81;5055712;28;20329;-78
2022/06/08 07:42:47;;;;;;;;;;;;;;;22.17;68.28;100995.28;5071113;28;19915;-80
2022/06/08 07:45:12;;;;;;;;;;;;;;;22.09;68.53;100996.97;5070824;28;19944;-80
2022/06/08 07:49:36;;;;;;;;;;;;;;;22.11;68.41;101000.53;5071159;28;19916;-79
2022/06/08 07:50:24;;;;;;;;;;;;;;;22.17;68.24;100983.75;5057190;28;19923;-80
2022/06/08 07:52:49;;;;;;;;;;;;;;;22.16;68.37;100988.19;5067798;28;20343;-80
2022/06/08 07:55:15;;;;;;;;;;;;;;;22.15;68.27;100989.06;5071006;28;19912;-81
2022/06/08 07:57:40;;;;;;;;;;;;;;;22.12;68.30;100985.50;5068241;28;20281;-80
2022/06/08 08:00:06;;;;;;;;;;;;;;;22.12;68.34;100988.16;5071191;28;20258;-81
2022/06/08 08:02:32;;;;;;;;;;;;;;;22.16;68.09;100988.19;5066310;28;19912;-80
2022/06/08 08:04:57;;;;;;;;;;;;;;;22.09;68.25;100986.34;5069971;28;19912;-81
2022/06/08 08:07:23;;;;;;;;;;;;;;;22.12;68.20;100989.03;5071393;28;19908;-80
2022/06/08 08:09:49;;;;;;;;;;;;;;;22.12;68.19;100983.72;5069842;28;20369;-81
2022/06/08 08:12:15;;;;;;;;;;;;;;;22.05;68.40;100988.94;5071090;28;19918;-80
2022/06/08 08:14:40;;;;;;;;;;;;;;;22.12;68.21;100985.50;5053860;28;20641;-80
2022/06/08 08:17:05;;;;;;;;;;;;;;;22.06;68.30;100985.44;5059984;28;19909;-80
2022/06/08 08:19:32;;;;;;;;;;;;;;;22.12;68.18;100989.03;5071802;28;19958;-80
2022/06/08 08:21:57;;;;;;;;;;;;;;;22.06;68.33;100982.78;5074801;28;20369;-81
2022/06/08 08:24:23;;;;;;;;;;;;;;;22.12;68.17;100986.38;5074626;28;19966;-80
2022/06/08 08:26:49;;;;;;;;;;;;;;;22.12;68.24;100982.84;5074157;28;19912;-81
2022/06/08 08:29:15;;;;;;;;;;;;;;;22.11;68.12;100986.34;5073531;28;20381;-80
2022/06/08 08:31:41;;;;;;;;;;;;;;;22.09;68.24;100983.66;5056477;28;19909;-80
2022/06/08 08:34:06;;;;;;;;;;;;;;;22.08;68.37;100986.34;5063072;28;19915;-79
2022/06/08 08:36:32;;;;;;;;;;;;;;;22.09;68.22;100978.34;5058279;28;19995;-81
2022/06/08 08:38:58;;;;;;;;;;;;;;;22.08;68.19;100981.91;5060977;28;19995;-81
2022/06/08 08:44:31;;;;;;;;;;;;;;;22.08;68.30;100987.22;5061036;28;19923;-81
2022/06/08 08:47:07;;;;;;;;;;;;;;;22.11;68.19;100981.03;5055744;28;19974;-80
2022/06/08 08:49:33;;;;;;;;;;;;;;;22.10;68.26;100988.13;5062999;28;19909;-80
2022/06/08 08:51:59;;;;;;;;;;;;;;;22.08;68.27;100987.22;5085423;28;19965;-80
2022/06/08 08:54:34;;;;;;;;;;;;;;;22.11;68.26;100986.34;5074105;28;19912;-80
2022/06/08 08:57:20;;;;;;;;;;;;;;;22.04;68.44;100984.53;5073644;28;19912;-80
2022/06/08 08:59:46;;;;;;;;;;;;;;;22.02;68.82;100978.28;5073883;28;19909;-80
2022/06/08 09:02:12;;;;;;;;;;;;;;;22.05;68.77;100983.63;5072345;28;19908;-79
2022/06/08 09:04:40;;;;;;;;;;;;;;;22.00;68.94;100975.63;5072288;28;19912;-80
2022/06/08 09:07:13;;;;;;;;;;;;;;;22.03;69.25;100974.75;5072822;28;19962;-80
2022/06/08 09:09:38;;;;;;;;;;;;;;;22.06;69.07;100981.00;5058440;28;19981;-80
2022/06/08 09:12:04;;;;;;;;;;;;;;;22.11;68.74;100983.69;5064513;28;20526;-80
2022/06/08 09:15:00;;;;;;;;;;;;;;;22.09;68.76;100981.00;5054694;28;19908;-82
2022/06/08 09:17:33;;;;;;;;;;;;;;;22.09;68.79;100974.81;5060915;28;19939;-81
2022/06/08 09:19:59;;;;;;;;;;;;;;;22.15;68.59;100980.19;5055076;28;19975;-81
2022/06/08 09:22:28;;;;;;;;;;;;;;;22.13;68.55;100984.59;5069336;28;20402;-82
2022/06/08 09:24:55;;;;;;;;;;;;;;;22.10;68.63;100977.50;5065501;28;19920;-79
2022/06/08 09:27:25;;;;;;;;;;;;;;;22.11;68.48;100973.94;5056235;28;20014;-80
2022/06/08 09:29:51;;;;;;;;;;;;;;;22.11;68.65;100978.38;5072064;28;20309;-81
2022/06/08 09:32:26;;;;;;;;;;;;;;;22.09;68.73;100978.34;5055349;28;19931;-81
2022/06/08 09:34:55;;;;;;;;;;;;;;;22.06;68.81;100973.00;5054752;28;19920;-81
2022/06/08 09:37:23;;;;;;;;;;;;;;;22.09;68.79;100982.78;5055076;28;19939;-80
2022/06/08 09:39:49;;;;;;;;;;;;;;;22.06;68.68;100978.34;5069404;28;20300;-80
2022/06/08 09:42:34;;;;;;;;;;;;;;;22.04;68.90;100972.09;5070280;28;20006;-80
2022/06/08 09:45:13;;;;;;;;;;;;;;;22.01;69.02;100973.84;5053443;28;19913;-80
2022/06/08 09:53:32;;;;;;;;;;;;;;;22.09;68.83;100980.13;5065847;28;19916;-82
2022/06/08 09:56:08;;;;;;;;;;;;;;;22.02;69.50;100976.53;5067723;28;19913;-80
2022/06/08 09:58:45;;;;;;;;;;;;;;;22.06;69.22;100977.47;5072228;28;19912;-79
2022/06/08 10:01:15;;;;;;;;;;;;;;;22.01;69.36;100973.84;5071324;28;20374;-80
2022/06/08 10:03:44;;;;;;;;;;;;;;;22.03;69.28;100972.09;5086846;28;19909;-80
2022/06/08 10:06:16;;;;;;;;;;;;;;;22.04;69.28;100971.22;5079912;28;19912;-80
2022/06/08 10:08:53;;;;;;;;;;;;;;;22.05;69.21;100960.56;5073547;28;19915;-80
2022/06/08 10:11:34;;;;;;;;;;;;;;;22.05;69.28;100962.34;5070106;28;19908;-80
2022/06/08 10:14:12;;;;;;;;;;;;;;;22.07;69.25;100966.81;5053539;28;19915;-80
2022/06/08 10:16:38;;;;;;;;;;;;;;;22.09;69.09;100964.16;5066630;28;19943;-81
2022/06/08 10:19:07;;;;;;;;;;;;;;;22.07;69.17;100968.59;5079161;28;19908;-80
2022/06/08 10:21:34;;;;;;;;;;;;;;;22.07;69.15;100976.56;5054817;28;19909;-80
2022/06/08 10:23:59;;;;;;;;;;;;;;;22.07;69.08;100968.59;5061680;28;20011;-81
2022/06/08 10:26:37;;;;;;;;;;;;;;;22.08;69.13;100963.28;5063794;28;20071;-80
2022/06/08 10:29:25;;;;;;;;;;;;;;;22.07;69.15;100965.91;5054239;28;19921;-82
2022/06/08 10:31:56;;;;;;;;;;;;;;;22.09;69.03;100961.50;5049934;28;19908;-81
2022/06/08 10:34:22;;;;;;;;;;;;;;;22.09;69.08;100967.72;5053279;28;19913;-81
2022/06/08 10:36:49;;;;;;;;;;;;;;;22.06;69.22;100956.19;5053037;28;19927;-81
2022/06/08 10:39:15;;;;;;;;;;;;;;;22.09;69.13;100961.50;5067526;28;20017;-81
2022/06/08 10:44:50;;;;;;;;;;;;;;;22.13;68.86;100969.53;5068659;28;19927;-80
2022/06/08 10:47:27;;;;;;;;;;;;;;;22.06;69.06;100973.00;5064601;28;20022;-80
2022/06/08 10:50:03;;;;;;;;;;;;;;;22.09;69.04;100972.16;5067326;28;19920;-81
2022/06/08 10:52:32;;;;;;;;;;;;;;;22.06;69.17;100969.47;5057687;28;20438;-80
2022/06/08 10:55:17;;;;;;;;;;;;;;;22.06;69.18;100970.34;5059829;28;19959;-80
2022/06/08 10:57:49;;;;;;;;;;;;;;;22.08;69.03;100968.59;5054966;28;19908;-79
2022/06/08 11:00:24;;;;;;;;;;;;;;;22.07;69.30;100961.50;5072420;28;19924;-81
2022/06/08 11:02:49;;;;;;;;;;;;;;;22.04;69.52;100961.47;5058584;28;20010;-80
2022/06/08 11:05:38;;;;;;;;;;;;;;;22.01;69.41;100960.53;5066275;28;20006;-79
2022/06/08 11:08:07;;;;;;;;;;;;;;;22.08;69.13;100963.28;5060077;28;20370;-81
2022/06/08 11:10:44;;;;;;;;;;;;;;;22.06;69.32;100966.81;5076382;28;19999;-81
2022/06/08 11:13:25;;;;;;;;;;;;;;;22.07;69.37;100960.59;5070475;28;19912;-81
2022/06/08 11:15:50;;;;;;;;;;;;;;;22.09;69.24;100958.84;5063800;28;19942;-81
2022/06/08 11:18:27;;;;;;;;;;;;;;;22.11;69.11;100957.09;5059519;28;19913;-81
2022/06/08 11:20:56;;;;;;;;;;;;;;;22.08;69.11;100960.63;5058910;28;19924;-81
2022/06/08 11:23:28;;;;;;;;;;;;;;;22.10;68.99;100952.69;5066715;28;19916;-81
2022/06/08 11:25:59;;;;;;;;;;;;;;;22.14;68.86;100955.38;5059649;28;20025;-81
2022/06/08 11:28:25;;;;;;;;;;;;;;;22.10;69.01;100953.56;5067894;28;19922;-79
2022/06/08 11:30:50;;;;;;;;;;;;;;;22.02;69.21;100954.38;5067037;28;19912;-80
2022/06/08 11:33:17;;;;;;;;;;;;;;;22.04;69.20;100964.13;5069853;28;19912;-81
2022/06/08 11:36:03;;;;;;;;;;;;;;;22.01;69.15;100953.44;5064199;28;19956;-80
2022/06/08 11:38:32;;;;;;;;;;;;;;;22.03;69.33;100959.66;5050382;28;19912;-80
2022/06/08 11:41:15;;;;;;;;;;;;;;;22.10;68.95;100960.66;5062871;28;20041;-80
2022/06/08 11:43:41;;;;;;;;;;;;;;;22.08;69.06;100962.41;5081504;28;20028;-80
2022/06/08 11:46:16;;;;;;;;;;;;;;;22.09;68.97;100967.72;5069866;28;20015;-81
2022/06/08 11:48:47;;;;;;;;;;;;;;;22.08;69.14;100965.06;5072284;28;20562;-81
2022/06/08 11:51:15;;;;;;;;;;;;;;;22.09;68.98;100966.84;5065230;28;20277;-82
2022/06/08 11:53:41;;;;;;;;;;;;;;;22.08;68.98;100965.94;5084817;28;19923;-80
2022/06/08 11:56:07;;;;;;;;;;;;;;;22.14;68.89;100959.81;5074353;28;19912;-80
2022/06/08 11:58:33;;;;;;;;;;;;;;;22.10;68.98;100955.34;5076050;28;20428;-79
2022/06/08 12:01:00;;;;;;;;;;;;;;;22.08;68.90;100952.66;5067759;28;19909;-80
2022/06/08 12:03:27;;;;;;;;;;;;;;;22.12;68.76;100962.44;5073723;28;20439;-80
2022/06/08 12:06:00;;;;;;;;;;;;;;;22.11;68.87;100957.97;5083181;28;19920;-79
2022/06/08 12:08:25;;;;;;;;;;;;;;;22.11;68.89;100967.75;5085481;28;19920;-80
2022/06/08 12:10:51;;;;;;;;;;;;;;;22.12;68.83;100957.13;5073584;28;19912;-79
2022/06/08 12:13:21;;;;;;;;;;;;;;;22.14;68.66;100954.50;5061246;28;20003;-80
2022/06/08 12:16:06;;;;;;;;;;;;;;;22.11;68.88;100941.13;5065827;28;20004;-80
2022/06/08 12:18:35;;;;;;;;;;;;;;;22.09;68.87;100957.06;5054732;28;20003;-80
2022/06/08 12:21:03;;;;;;;;;;;;;;;22.14;68.70;100950.06;5068300;28;19961;-80
2022/06/08 12:23:44;;;;;;;;;;;;;;;22.12;68.76;100945.59;5055534;28;19908;-80
2022/06/08 12:26:17;;;;;;;;;;;;;;;22.06;68.92;100940.22;5090928;28;20412;-81
2022/06/08 12:28:43;;;;;;;;;;;;;;;22.15;68.65;100945.63;5060850;28;20050;-81
2022/06/08 12:31:18;;;;;;;;;;;;;;;22.14;68.70;100946.50;5080082;28;20454;-80
2022/06/08 12:33:44;;;;;;;;;;;;;;;22.05;69.10;100941.97;5081197;28;19978;-78
2022/06/08 12:36:18;;;;;;;;;;;;;;;22.09;68.91;100933.13;5069418;28;19952;-81
2022/06/08 12:39:04;;;;;;;;;;;;;;;22.06;69.07;100935.78;5080691;28;19920;-80
2022/06/08 12:41:39;;;;;;;;;;;;;;;22.12;68.92;100927.88;5061479;28;19916;-82
2022/06/08 12:44:05;;;;;;;;;;;;;;;22.12;68.93;100925.22;5070189;28;19916;-80
2022/06/08 12:46:34;;;;;;;;;;;;;;;22.05;69.13;100918.03;5058871;28;19912;-81
2022/06/08 12:49:17;;;;;;;;;;;;;;;22.09;68.98;100919.84;5073006;28;19909;-80
2022/06/08 12:51:43;;;;;;;;;;;;;;;22.09;69.12;100919.84;5066513;28;19912;-81
2022/06/08 12:54:15;;;;;;;;;;;;;;;22.14;68.89;100912.81;5071231;28;19912;-80
2022/06/08 12:56:41;;;;;;;;;;;;;;;22.08;69.14;100910.09;5069924;28;20015;-81
2022/06/08 12:59:08;;;;;;;;;;;;;;;22.09;69.08;100909.19;5074524;28;20369;-81